createdAt,value
2017-10-27T00:00:13.733Z,29.90
2017-10-27T00:02:41.395Z,33.30
2017-10-27T00:05:08.966Z,34.40
2017-10-27T00:07:36.607Z,34.90
2017-10-27T00:10:04.205Z,32.87
2017-10-27T00:12:32.226Z,36.30
2017-10-27T00:15:00.574Z,34.40
2017-10-27T00:17:28.152Z,32.97
2017-10-27T00:19:56.522Z,34.70
2017-10-27T00:22:24.090Z,36.20
2017-10-27T00:24:51.833Z,36.87
2017-10-27T00:27:19.416Z,34.13
2017-10-27T00:29:48.051Z,36.97
2017-10-27T00:32:15.666Z,37.93
2017-10-27T00:34:44.010Z,38.27
2017-10-27T00:37:11.657Z,38.70
2017-10-27T00:39:39.222Z,37.33
2017-10-27T00:42:06.817Z,39.80
2017-10-27T00:44:35.148Z,38.13
2017-10-27T00:47:02.764Z,35.93
2017-10-27T00:49:31.101Z,34.27
2017-10-27T00:51:58.935Z,34.00
2017-10-27T00:54:26.505Z,33.67
2017-10-27T00:56:54.067Z,33.73
2017-10-27T00:59:21.658Z,32.73
2017-10-27T01:01:49.246Z,34.90
2017-10-27T01:04:17.639Z,33.90
2017-10-27T01:06:45.274Z,33.27
2017-10-27T01:09:13.626Z,33.60
2017-10-27T01:11:41.210Z,33.47
2017-10-27T01:14:09.852Z,30.63
2017-10-27T01:16:37.423Z,27.77
2017-10-27T01:19:04.990Z,31.50
2017-10-27T01:21:32.578Z,31.77
2017-10-27T01:24:00.910Z,31.13
2017-10-27T01:26:28.871Z,28.97
2017-10-27T01:28:56.454Z,28.57
2017-10-27T01:31:24.038Z,29.40
2017-10-27T01:33:53.110Z,29.17
2017-10-27T01:36:20.754Z,27.77
2017-10-27T01:38:48.313Z,30.00
2017-10-27T01:41:16.177Z,26.60
2017-10-27T01:43:43.790Z,29.27
2017-10-27T01:46:12.122Z,25.10
2017-10-27T01:48:39.732Z,27.43
2017-10-27T01:51:08.071Z,27.93
2017-10-27T01:53:35.707Z,27.50
2017-10-27T01:56:03.362Z,31.67
2017-10-27T01:58:31.295Z,26.80
2017-10-27T02:00:59.623Z,26.93
2017-10-27T02:03:27.262Z,25.00
2017-10-27T02:05:55.089Z,26.30
2017-10-27T02:08:23.472Z,29.43
2017-10-27T02:10:51.823Z,29.20
2017-10-27T02:13:19.483Z,28.03
2017-10-27T02:15:47.068Z,25.93
2017-10-27T02:18:15.491Z,28.03
2017-10-27T02:20:43.082Z,28.27
2017-10-27T02:23:10.646Z,28.33
2017-10-27T02:25:38.580Z,30.17
2017-10-27T02:28:06.184Z,29.80
2017-10-27T02:30:33.757Z,29.30
2017-10-27T02:33:02.106Z,26.80
2017-10-27T02:35:29.697Z,28.70
2017-10-27T02:37:58.074Z,26.83
2017-10-27T02:40:25.670Z,28.57
2017-10-27T02:42:53.515Z,27.60
2017-10-27T02:45:21.097Z,26.73
2017-10-27T02:47:48.722Z,29.57
2017-10-27T02:50:17.094Z,28.30
2017-10-27T02:52:45.435Z,26.60
2017-10-27T02:55:13.046Z,27.57
2017-10-27T02:57:40.669Z,28.77
2017-10-27T03:00:08.253Z,27.73
2017-10-27T03:02:36.594Z,28.17
2017-10-27T03:05:04.189Z,28.37
2017-10-27T03:07:32.523Z,31.37
2017-10-27T03:10:00.675Z,30.57
2017-10-27T03:12:28.246Z,30.63
2017-10-27T03:14:55.829Z,31.07
2017-10-27T03:17:23.464Z,30.10
2017-10-27T03:19:51.037Z,31.33
2017-10-27T03:22:19.397Z,33.33
2017-10-27T03:24:46.998Z,35.10
2017-10-27T03:27:15.042Z,32.93
2017-10-27T03:29:42.855Z,34.67
2017-10-27T03:32:11.193Z,35.43
2017-10-27T03:34:39.574Z,35.07
2017-10-27T03:37:07.142Z,36.43
2017-10-27T03:39:34.818Z,37.00
2017-10-27T03:42:03.154Z,36.20
2017-10-27T03:44:30.746Z,39.97
2017-10-27T03:46:58.330Z,36.40
2017-10-27T03:49:26.686Z,37.20
2017-10-27T03:51:54.258Z,37.67
2017-10-27T03:54:23.013Z,36.03
2017-10-27T03:56:50.579Z,33.80
2017-10-27T03:59:18.143Z,34.10
2017-10-27T04:01:45.758Z,35.90
2017-10-27T04:04:13.350Z,31.20
2017-10-27T04:06:40.964Z,34.50
2017-10-27T04:09:08.822Z,33.27
2017-10-27T04:11:37.553Z,34.00
2017-10-27T04:14:05.125Z,31.87
2017-10-27T04:16:32.698Z,33.20
2017-10-27T04:19:00.317Z,34.80
2017-10-27T04:21:27.894Z,35.50
2017-10-27T04:23:55.499Z,32.27
2017-10-27T04:26:23.843Z,32.13
2017-10-27T04:28:51.612Z,31.57
2017-10-27T04:31:19.178Z,31.87
2017-10-27T04:33:47.130Z,31.60
2017-10-27T04:36:14.719Z,29.40
2017-10-27T04:38:43.047Z,27.53
2017-10-27T04:41:10.657Z,28.37
2017-10-27T04:43:38.998Z,30.60
2017-10-27T04:46:07.400Z,30.60
2017-10-27T04:48:35.028Z,29.57
2017-10-27T04:51:02.891Z,27.37
2017-10-27T04:53:30.503Z,29.90
2017-10-27T04:55:59.121Z,29.70
2017-10-27T04:58:26.694Z,26.13
2017-10-27T05:00:54.270Z,26.70
2017-10-27T05:03:21.860Z,27.13
2017-10-27T05:05:50.202Z,26.87
2017-10-27T05:08:17.822Z,25.20
2017-10-27T05:10:45.594Z,23.83
2017-10-27T05:13:13.486Z,26.13
2017-10-27T05:15:41.062Z,24.37
2017-10-27T05:18:14.670Z,24.57
2017-10-27T05:20:47.769Z,21.63
2017-10-27T05:23:21.338Z,22.80
2017-10-27T05:25:48.918Z,24.97
2017-10-27T05:28:16.512Z,20.90
2017-10-27T05:30:44.125Z,19.13
2017-10-27T05:33:11.711Z,17.97
2017-10-27T05:35:40.116Z,17.00
2017-10-27T05:38:07.693Z,18.03
2017-10-27T05:40:35.839Z,17.60
2017-10-27T05:43:04.169Z,17.03
2017-10-27T05:45:31.729Z,20.80
2017-10-27T05:47:59.349Z,16.53
2017-10-27T05:50:26.906Z,15.43
2017-10-27T05:52:54.506Z,13.80
2017-10-27T05:55:22.093Z,13.03
2017-10-27T05:57:50.029Z,13.90
2017-10-27T06:00:17.612Z,13.23
2017-10-27T06:02:45.228Z,14.00
2017-10-27T06:05:12.855Z,14.17
2017-10-27T06:07:41.172Z,13.63
2017-10-27T06:10:08.778Z,11.40
2017-10-27T06:12:36.375Z,10.20
2017-10-27T06:15:04.081Z,10.47
2017-10-27T06:17:31.665Z,9.73
2017-10-27T06:19:59.265Z,9.70
2017-10-27T06:22:26.837Z,9.20
2017-10-27T06:24:54.795Z,9.77
2017-10-27T06:27:22.422Z,10.10
2017-10-27T06:29:50.795Z,11.33
2017-10-27T06:32:19.274Z,9.63
2017-10-27T06:34:47.625Z,8.90
2017-10-27T06:37:15.234Z,9.80
2017-10-27T06:39:42.827Z,8.70
2017-10-27T06:42:10.702Z,7.23
2017-10-27T06:44:38.286Z,6.80
2017-10-27T06:47:05.863Z,6.80
2017-10-27T06:49:34.306Z,7.60
2017-10-27T06:52:01.898Z,6.70
2017-10-27T06:54:29.544Z,8.53
2017-10-27T06:56:57.114Z,6.20
2017-10-27T06:59:25.053Z,6.50
2017-10-27T07:01:52.665Z,8.33
2017-10-27T07:04:21.036Z,7.90
2017-10-27T07:06:49.477Z,8.10
2017-10-27T07:09:17.047Z,7.63
2017-10-27T07:11:44.646Z,7.40
2017-10-27T07:14:12.228Z,6.97
2017-10-27T07:16:39.822Z,7.80
2017-10-27T07:19:07.398Z,7.17
2017-10-27T07:21:35.768Z,7.13
2017-10-27T07:24:03.370Z,7.47
2017-10-27T07:26:31.275Z,6.17
2017-10-27T07:29:01.185Z,5.90
2017-10-27T07:31:29.026Z,5.23
2017-10-27T07:33:56.610Z,6.67
2017-10-27T07:36:24.294Z,5.73
2017-10-27T07:38:51.891Z,5.97
2017-10-27T07:41:19.455Z,6.70
2017-10-27T07:43:47.358Z,6.60
2017-10-27T07:46:14.946Z,7.00
2017-10-27T07:48:42.519Z,6.40
2017-10-27T07:51:10.906Z,5.67
2017-10-27T07:53:39.353Z,6.10
2017-10-27T07:56:07.416Z,5.27
2017-10-27T07:58:34.983Z,5.20
2017-10-27T08:01:02.534Z,5.23
2017-10-27T08:03:30.134Z,5.30
2017-10-27T08:05:58.562Z,4.90
2017-10-27T08:08:26.151Z,4.60
2017-10-27T08:10:53.704Z,4.83
2017-10-27T08:13:21.555Z,4.67
2017-10-27T08:15:49.124Z,3.60
2017-10-27T08:18:16.712Z,3.47
2017-10-27T08:20:45.050Z,4.30
2017-10-27T08:23:12.625Z,4.63
2017-10-27T08:25:40.231Z,3.80
2017-10-27T08:28:08.583Z,3.50
2017-10-27T08:30:36.926Z,3.70
2017-10-27T08:33:04.489Z,4.13
2017-10-27T08:35:32.113Z,4.27
2017-10-27T08:37:59.925Z,3.30
2017-10-27T08:40:27.771Z,3.90
2017-10-27T08:42:55.343Z,4.33
2017-10-27T08:45:22.915Z,2.90
2017-10-27T08:47:50.489Z,2.60
2017-10-27T08:50:18.841Z,2.87
2017-10-27T08:52:46.433Z,3.10
2017-10-27T08:55:14.774Z,2.80
2017-10-27T08:57:42.624Z,2.90
2017-10-27T09:00:10.195Z,3.03
2017-10-27T09:02:37.739Z,3.60
2017-10-27T09:05:05.338Z,4.80
2017-10-27T09:07:32.914Z,3.43
2017-10-27T09:10:01.541Z,3.63
2017-10-27T09:12:29.170Z,4.63
2017-10-27T09:14:56.819Z,4.27
2017-10-27T09:17:25.194Z,4.50
2017-10-27T09:19:53.549Z,4.90
2017-10-27T09:22:21.189Z,3.50
2017-10-27T09:24:48.777Z,4.17
2017-10-27T09:27:17.470Z,4.10
2017-10-27T09:29:45.071Z,3.93
2017-10-27T09:32:12.658Z,3.37
2017-10-27T09:34:40.465Z,3.03
2017-10-27T09:37:08.800Z,2.77
2017-10-27T09:39:36.532Z,3.40
2017-10-27T09:42:04.176Z,2.70
2017-10-27T09:44:31.833Z,2.90
2017-10-27T09:46:59.394Z,2.37
2017-10-27T09:49:27.005Z,3.03
2017-10-27T09:51:54.597Z,3.00
2017-10-27T09:54:23.239Z,2.20
2017-10-27T09:56:50.812Z,2.40
2017-10-27T09:59:18.393Z,1.73
2017-10-27T10:01:46.757Z,1.90
2017-10-27T10:04:14.414Z,1.90
2017-10-27T10:06:42.018Z,1.90
2017-10-27T10:09:09.597Z,2.20
2017-10-27T10:11:37.449Z,1.90
2017-10-27T10:14:04.996Z,1.87
2017-10-27T10:16:33.390Z,3.37
2017-10-27T10:19:00.990Z,2.23
2017-10-27T10:21:28.632Z,2.70
2017-10-27T10:23:56.278Z,3.10
2017-10-27T10:26:23.849Z,1.90
2017-10-27T10:28:51.442Z,2.47
2017-10-27T10:31:18.994Z,1.70
2017-10-27T10:33:46.583Z,2.40
2017-10-27T10:36:14.922Z,1.87
2017-10-27T10:38:42.522Z,2.03
2017-10-27T10:41:10.866Z,1.87
2017-10-27T10:43:38.479Z,1.67
2017-10-27T10:46:06.066Z,2.00
2017-10-27T10:48:33.610Z,1.97
2017-10-27T10:51:01.270Z,1.77
2017-10-27T10:53:28.831Z,1.90
2017-10-27T10:55:56.725Z,1.53
2017-10-27T10:58:24.298Z,2.13
2017-10-27T11:00:51.877Z,1.80
2017-10-27T11:03:20.251Z,2.03
2017-10-27T11:05:47.817Z,1.30
2017-10-27T11:08:16.153Z,1.60
2017-10-27T11:10:43.763Z,1.60
2017-10-27T11:13:12.110Z,1.53
2017-10-27T11:18:20.315Z,2.00
2017-10-27T11:20:47.887Z,2.10
2017-10-27T11:23:15.496Z,2.00
2017-10-27T11:25:43.314Z,2.13
2017-10-27T11:28:11.178Z,1.70
2017-10-27T11:30:38.955Z,1.83
2017-10-27T11:33:06.533Z,2.20
2017-10-27T11:35:34.894Z,2.10
2017-10-27T11:38:02.454Z,1.40
2017-10-27T11:40:30.122Z,1.40
2017-10-27T11:42:58.525Z,1.70
2017-10-27T11:45:26.122Z,1.57
2017-10-27T11:47:53.710Z,1.33
2017-10-27T11:50:21.387Z,1.60
2017-10-27T11:52:48.981Z,1.50
2017-10-27T11:55:16.588Z,1.40
2017-10-27T11:57:44.190Z,1.43
2017-10-27T12:00:13.793Z,1.73
2017-10-27T12:02:41.373Z,1.20
2017-10-27T12:05:08.977Z,1.30
2017-10-27T12:07:36.549Z,1.20
2017-10-27T12:10:04.158Z,1.30
2017-10-27T12:12:31.744Z,1.80
2017-10-27T12:14:59.315Z,1.33
2017-10-27T12:17:28.633Z,1.57
2017-10-27T12:19:57.027Z,1.67
2017-10-27T12:22:24.647Z,1.30
2017-10-27T12:24:52.226Z,1.50
2017-10-27T12:27:20.886Z,1.67
2017-10-27T12:29:48.454Z,1.30
2017-10-27T12:32:16.146Z,1.43
2017-10-27T12:34:44.685Z,1.20
2017-10-27T12:37:12.294Z,1.77
2017-10-27T12:39:40.639Z,1.50
2017-10-27T12:42:08.247Z,1.10
2017-10-27T12:44:36.170Z,1.27
2017-10-27T12:47:03.777Z,1.50
2017-10-27T12:49:31.352Z,1.40
2017-10-27T12:51:59.290Z,1.10
2017-10-27T12:54:26.851Z,1.37
2017-10-27T12:56:54.782Z,1.87
2017-10-27T12:59:22.389Z,1.77
2017-10-27T13:01:49.996Z,1.87
2017-10-27T13:04:17.586Z,2.03
2017-10-27T13:06:45.926Z,1.97
2017-10-27T13:09:13.503Z,1.33
2017-10-27T13:11:41.227Z,1.30
2017-10-27T13:14:09.119Z,1.17
2017-10-27T13:16:36.678Z,1.20
2017-10-27T13:19:04.309Z,1.50
2017-10-27T13:21:31.947Z,1.33
2017-10-27T13:23:59.538Z,1.20
2017-10-27T13:26:27.384Z,1.40
2017-10-27T13:28:55.002Z,1.40
2017-10-27T13:31:22.571Z,1.20
2017-10-27T13:33:50.931Z,1.20
2017-10-27T13:36:18.524Z,1.23
2017-10-27T13:38:46.886Z,1.17
2017-10-27T13:41:15.262Z,1.20
2017-10-27T13:43:43.693Z,1.20
2017-10-27T13:46:11.298Z,1.50
2017-10-27T13:48:38.884Z,1.57
2017-10-27T13:51:06.543Z,1.27
2017-10-27T13:53:34.115Z,1.47
2017-10-27T13:56:01.708Z,1.50
2017-10-27T13:58:29.306Z,3.27
2017-10-27T14:00:57.713Z,1.63
2017-10-27T14:03:25.305Z,1.20
2017-10-27T14:05:52.930Z,1.30
2017-10-27T14:08:20.652Z,1.33
2017-10-27T14:10:48.426Z,1.23
2017-10-27T14:13:16.209Z,1.50
2017-10-27T14:15:43.850Z,1.50
2017-10-27T14:18:12.199Z,1.07
2017-10-27T14:20:39.906Z,1.20
2017-10-27T14:23:08.259Z,1.73
2017-10-27T14:25:35.869Z,1.47
2017-10-27T14:28:03.482Z,1.00
2017-10-27T14:30:31.299Z,1.63
2017-10-27T14:35:33.125Z,1.80
2017-10-27T14:38:01.556Z,1.60
2017-10-27T14:40:30.384Z,1.63
2017-10-27T14:45:32.396Z,1.30
2017-10-27T14:48:00.745Z,1.60
2017-10-27T14:50:29.207Z,1.50
2017-10-27T14:52:57.083Z,1.37
2017-10-27T14:55:24.700Z,2.00
2017-10-27T14:57:52.293Z,1.03
2017-10-27T15:00:19.926Z,1.80
2017-10-27T15:02:47.515Z,2.40
2017-10-27T15:05:15.149Z,1.93
2017-10-27T15:07:42.762Z,1.87
2017-10-27T15:10:14.062Z,1.70
2017-10-27T15:12:41.670Z,1.57
2017-10-27T15:15:10.354Z,1.40
2017-10-27T15:17:38.682Z,1.60
2017-10-27T15:20:06.265Z,1.83
2017-10-27T15:22:33.880Z,1.53
2017-10-27T15:25:01.454Z,1.40
2017-10-27T15:27:29.060Z,1.50
2017-10-27T15:29:56.645Z,1.43
2017-10-27T15:32:25.050Z,2.00
2017-10-27T15:34:52.773Z,1.97
2017-10-27T15:37:21.423Z,1.83
2017-10-27T15:39:49.012Z,1.93
2017-10-27T15:42:16.661Z,2.63
2017-10-27T15:44:44.327Z,1.47
2017-10-27T15:47:11.879Z,1.33
2017-10-27T15:49:39.481Z,1.50
2017-10-27T15:52:07.374Z,1.60
2017-10-27T15:54:34.986Z,1.80
2017-10-27T15:57:03.366Z,1.60
2017-10-27T15:59:31.266Z,1.80
2017-10-27T16:01:58.932Z,1.80
2017-10-27T16:04:26.582Z,1.97
2017-10-27T16:06:54.163Z,2.40
2017-10-27T16:09:21.798Z,2.40
2017-10-27T16:11:49.438Z,2.37
2017-10-27T16:14:17.923Z,1.97
2017-10-27T16:16:46.330Z,1.53
2017-10-27T16:19:14.555Z,1.37
2017-10-27T16:21:42.557Z,1.40
2017-10-27T16:24:10.898Z,1.87
2017-10-27T16:26:38.478Z,1.50
2017-10-27T16:29:06.863Z,1.43
2017-10-27T16:31:35.213Z,1.30
2017-10-27T16:34:02.807Z,1.80
2017-10-27T16:36:31.256Z,1.60
2017-10-27T16:38:58.859Z,1.50
2017-10-27T16:41:26.476Z,1.60
2017-10-27T16:43:55.295Z,2.47
2017-10-27T16:46:23.652Z,4.07
2017-10-27T16:48:51.248Z,3.07
2017-10-27T16:51:18.826Z,3.10
2017-10-27T16:53:46.427Z,2.70
2017-10-27T16:58:51.489Z,2.83
2017-10-27T17:01:19.116Z,3.00
2017-10-27T17:03:46.701Z,3.40
2017-10-27T17:06:14.635Z,3.17
2017-10-27T17:08:42.231Z,3.20
2017-10-27T17:11:09.860Z,3.57
2017-10-27T17:13:37.514Z,6.00
2017-10-27T17:16:05.125Z,6.00
2017-10-27T17:18:32.756Z,19.70
2017-10-27T17:21:00.368Z,21.83
2017-10-27T17:23:28.052Z,10.00
2017-10-27T17:25:55.630Z,6.43
2017-10-27T17:28:23.722Z,4.10
2017-10-27T17:30:51.318Z,4.80
2017-10-27T17:33:18.894Z,4.40
2017-10-27T17:35:47.606Z,3.03
2017-10-27T17:38:15.195Z,3.63
2017-10-27T17:40:43.954Z,4.03
2017-10-27T17:43:11.678Z,3.70
2017-10-27T17:45:39.307Z,3.83
2017-10-27T17:48:07.622Z,3.90
2017-10-27T17:50:35.575Z,5.37
2017-10-27T17:53:03.134Z,6.20
2017-10-27T17:55:30.717Z,8.60
2017-10-27T17:57:58.325Z,6.43
2017-10-27T18:00:25.911Z,5.53
2017-10-27T18:02:53.556Z,6.30
2017-10-27T18:05:21.972Z,6.20
2017-10-27T18:07:49.819Z,7.10
2017-10-27T18:10:17.449Z,6.10
2017-10-27T18:12:45.375Z,6.80
2017-10-27T18:15:12.992Z,11.70
2017-10-27T18:17:41.338Z,8.83
2017-10-27T18:20:08.964Z,6.43
2017-10-27T18:22:36.682Z,6.20
2017-10-27T18:25:05.046Z,7.70
2017-10-27T18:27:32.646Z,6.67
2017-10-27T18:30:00.284Z,6.27
2017-10-27T18:32:28.772Z,7.63
2017-10-27T18:34:57.428Z,6.23
2017-10-27T18:37:25.011Z,5.60
2017-10-27T18:39:53.365Z,3.60
2017-10-27T18:42:21.052Z,3.47
2017-10-27T18:44:48.683Z,6.57
2017-10-27T18:47:16.272Z,6.87
2017-10-27T18:49:44.733Z,7.37
2017-10-27T18:52:13.463Z,8.03
2017-10-27T18:54:41.035Z,8.43
2017-10-27T18:57:08.693Z,11.37
2017-10-27T18:59:36.399Z,9.20
2017-10-27T19:02:04.041Z,11.67
2017-10-27T19:04:32.501Z,8.53
2017-10-27T19:07:00.232Z,10.30
2017-10-27T19:09:31.546Z,8.23
2017-10-27T19:11:59.258Z,6.97
2017-10-27T19:14:26.873Z,6.93
2017-10-27T19:16:54.527Z,6.03
2017-10-27T19:19:22.148Z,8.83
2017-10-27T19:21:49.803Z,8.00
2017-10-27T19:24:17.407Z,9.80
2017-10-27T19:26:46.151Z,9.10
2017-10-27T19:29:13.752Z,10.43
2017-10-27T19:31:41.335Z,13.90
2017-10-27T19:34:08.960Z,14.97
2017-10-27T19:36:36.560Z,12.97
2017-10-27T19:39:05.100Z,13.20
2017-10-27T19:41:32.711Z,11.07
2017-10-27T19:44:00.350Z,8.17
2017-10-27T19:46:27.951Z,7.30
2017-10-27T19:48:55.582Z,9.10
2017-10-27T19:51:23.175Z,9.43
2017-10-27T19:53:51.106Z,10.93
2017-10-27T19:56:18.723Z,11.00
2017-10-27T19:58:46.461Z,19.00
2017-10-27T20:01:14.038Z,10.17
2017-10-27T20:03:42.608Z,9.50
2017-10-27T20:06:10.448Z,9.20
2017-10-27T20:08:38.836Z,9.97
2017-10-27T20:11:07.467Z,13.23
2017-10-27T20:13:35.081Z,9.40
2017-10-27T20:16:03.446Z,9.20
2017-10-27T20:18:31.837Z,10.33
2017-10-27T20:21:00.178Z,10.87
2017-10-27T20:23:27.807Z,11.33
2017-10-27T20:25:55.654Z,11.30
2017-10-27T20:28:23.337Z,12.03
2017-10-27T20:30:52.989Z,11.10
2017-10-27T20:33:20.702Z,10.60
2017-10-27T20:35:48.272Z,10.43
2017-10-27T20:38:16.134Z,11.27
2017-10-27T20:40:47.704Z,11.27
2017-10-27T20:43:15.643Z,11.57
2017-10-27T20:45:43.289Z,12.13
2017-10-27T20:48:10.877Z,12.50
2017-10-27T20:50:38.488Z,11.70
2017-10-27T20:53:06.874Z,12.70
2017-10-27T20:55:35.605Z,11.97
2017-10-27T20:58:03.252Z,12.90
2017-10-27T21:00:30.873Z,13.10
2017-10-27T21:02:58.554Z,13.50
2017-10-27T21:05:35.476Z,12.30
2017-10-27T21:08:03.836Z,12.27
2017-10-27T21:10:31.470Z,11.53
2017-10-27T21:12:59.139Z,12.30
2017-10-27T21:15:27.117Z,13.27
2017-10-27T21:17:54.825Z,11.60
2017-10-27T21:20:23.254Z,12.53
2017-10-27T21:22:51.378Z,13.03
2017-10-27T21:25:19.158Z,12.40
2017-10-27T21:27:47.525Z,12.40
2017-10-27T21:30:15.292Z,11.47
2017-10-27T21:32:42.928Z,13.30
2017-10-27T21:35:10.565Z,13.97
2017-10-27T21:37:38.237Z,14.03
2017-10-27T21:40:06.103Z,14.77
2017-10-27T21:42:33.749Z,16.00
2017-10-27T21:45:01.363Z,14.40
2017-10-27T21:47:28.994Z,15.40
2017-10-27T21:49:56.631Z,16.23
2017-10-27T21:52:24.505Z,15.47
2017-10-27T21:54:52.353Z,15.00
2017-10-27T21:57:20.287Z,16.60
2017-10-27T21:59:48.770Z,16.53
2017-10-27T22:02:17.233Z,20.40
2017-10-27T22:04:44.873Z,19.10
2017-10-27T22:07:12.463Z,15.60
2017-10-27T22:09:40.118Z,18.67
2017-10-27T22:12:07.756Z,18.30
2017-10-27T22:14:35.641Z,17.17
2017-10-27T22:17:03.227Z,15.70
2017-10-27T22:19:30.878Z,16.03
2017-10-27T22:21:58.506Z,16.63
2017-10-27T22:24:26.148Z,13.27
2017-10-27T22:26:53.793Z,13.97
2017-10-27T22:29:21.416Z,15.27
2017-10-27T22:31:49.052Z,16.30
2017-10-27T22:34:16.632Z,16.20
2017-10-27T22:36:45.006Z,15.23
2017-10-27T22:39:12.614Z,14.40
2017-10-27T22:41:40.660Z,14.10
2017-10-27T22:44:08.995Z,14.87
2017-10-27T22:46:36.581Z,15.93
2017-10-27T22:49:04.198Z,14.67
2017-10-27T22:51:31.786Z,13.80
2017-10-27T22:53:59.387Z,13.30
2017-10-27T22:56:27.133Z,12.03
2017-10-27T22:58:55.791Z,13.67
2017-10-27T23:01:23.390Z,12.33
2017-10-27T23:03:50.991Z,12.57
2017-10-27T23:06:18.599Z,11.70
2017-10-27T23:08:47.143Z,12.33
2017-10-27T23:11:14.753Z,12.50
2017-10-27T23:13:43.095Z,12.50
2017-10-27T23:16:10.978Z,12.33
2017-10-27T23:18:38.563Z,12.40
2017-10-27T23:21:06.147Z,10.67
2017-10-27T23:23:33.747Z,12.07
2017-10-27T23:26:01.339Z,12.27
2017-10-27T23:28:30.021Z,11.50
2017-10-27T23:30:57.607Z,11.37
2017-10-27T23:33:25.197Z,11.67
2017-10-27T23:35:52.795Z,11.63
2017-10-27T23:38:21.238Z,15.00
2017-10-27T23:40:48.817Z,13.33
2017-10-27T23:43:16.792Z,13.07
2017-10-27T23:45:44.385Z,13.77
2017-10-27T23:48:11.981Z,13.77
2017-10-27T23:50:39.611Z,13.37
2017-10-27T23:53:07.209Z,12.67
2017-10-27T23:55:35.591Z,12.57
2017-10-27T23:58:03.190Z,13.03
